Cse Prosperity Expr. — 3EES5 — position and weather

sailwx.info

Track history (hours):
 
Tides and Currents Weather Stations Pressure Air Temp Water Temp Dewpoint Dewpoint Depression Visibility Wind Speed Wind Dir Waves Ship Positions

Cse Prosperity Expr.

Last reported at 2014-Aug-01 07:32 UTC. Time now 2014-Aug-01 07:49 UTC.
Position N 34°14' E 135°07'.

Length 168 m; draft 5.6 m.

Type: Cargo ship. MMSI: 371801000.

Date/timePositionNaut miles runAvg speedWind from/ knotsBaromVisibWave heightAir tempDewpointWater temp
2014-Aug-01 07:32N 34°14' E 135°07'0 0.0
2014-Aug-01 06:32N 34°14' E 135°07'0 0.0
2014-Aug-01 05:32N 34°14' E 135°07'0 0.0
2014-Aug-01 04:32N 34°14' E 135°07'0 0.0
2014-Aug-01 03:32N 34°14' E 135°07'0 0.0
2014-Aug-01 02:32N 34°14' E 135°07'0 0.0
2014-Aug-01 01:32N 34°14' E 135°07'0 0.0
2014-Aug-01 00:32N 34°14' E 135°07'1 1.0
2014-Jul-31 23:33N 34°14' E 135°06'1 1.0
2014-Jul-31 22:31N 34°14' E 135°05'0 0.0
2014-Jul-31 21:31N 34°14' E 135°05'0 0.0
2014-Jul-31 20:31N 34°14' E 135°05'0 0.0
2014-Jul-31 19:31N 34°14' E 135°05'0 0.0
2014-Jul-31 18:28N 34°14' E 135°05'0 0.1
2014-Jul-31 17:31N 34°14' E 135°05'0 0.0
2014-Jul-31 16:28N 34°14' E 135°05'0 0.0
2014-Jul-31 15:31N 34°14' E 135°05'0 0.0
2014-Jul-31 14:31N 34°14' E 135°05'0 0.0
2014-Jul-31 13:31N 34°14' E 135°05'0 0.0
2014-Jul-31 12:31N 34°14' E 135°05'0 0.0
2014-Jul-31 11:31N 34°14' E 135°05'0 0.0
2014-Jul-31 10:31N 34°14' E 135°05'0 0.0
2014-Jul-31 09:31N 34°14' E 135°05'0 0.0
2014-Jul-31 08:31N 34°14' E 135°05'0 0.0
2014-Jul-31 07:31N 34°14' E 135°05'0 0.0
2014-Jul-31 06:31N 34°14' E 135°05'0 0.0
2014-Jul-31 05:31N 34°14' E 135°05'0 0.0
2014-Jul-31 04:31N 34°14' E 135°05'0 0.0
2014-Jul-31 03:31N 34°14' E 135°05'0 0.0
2014-Jul-31 02:31N 34°14' E 135°05'0 0.1
2014-Jul-31 01:31N 34°14' E 135°05'0 0.0
2014-Jul-31 00:31N 34°14' E 135°05'0 0.0
2014-Jul-30 23:28N 34°14' E 135°05'0 0.0
2014-Jul-30 22:31N 34°14' E 135°05'0 0.0
2014-Jul-30 21:31N 34°14' E 135°05'0 0.0
2014-Jul-30 20:28N 34°14' E 135°05'0 0.0
2014-Jul-30 19:31N 34°14' E 135°05'0 0.0
2014-Jul-30 18:31N 34°14' E 135°05'0 0.0
2014-Jul-30 17:31N 34°14' E 135°05'0 0.1
2014-Jul-30 16:31N 34°14' E 135°05'0 0.0
2014-Jul-30 15:31N 34°14' E 135°05'0 0.0
2014-Jul-30 14:31N 34°14' E 135°05'0 0.0
2014-Jul-30 13:31N 34°14' E 135°05'0 0.0
2014-Jul-30 12:31N 34°14' E 135°05'0 0.0
2014-Jul-30 11:31N 34°14' E 135°05'0 0.0
2014-Jul-30 10:31N 34°14' E 135°05'0 0.0
2014-Jul-30 09:31N 34°14' E 135°05'0 0.0
2014-Jul-30 08:31N 34°14' E 135°05'0 0.0
2014-Jul-30 07:31N 34°14' E 135°05'0 0.1
2014-Jul-30 06:31N 34°14' E 135°05'0 0.0
2014-Jul-30 05:31N 34°14' E 135°05'0 0.1
2014-Jul-30 04:31N 34°14' E 135°05'0 0.1
2014-Jul-30 03:31N 34°14' E 135°05'0 0.1
2014-Jul-30 02:31N 34°14' E 135°05'0 0.0
2014-Jul-30 01:31N 34°14' E 135°05'0 0.0
2014-Jul-30 00:31N 34°14' E 135°05'0 0.0
2014-Jul-29 23:31N 34°14' E 135°05'0 0.0
2014-Jul-29 22:28N 34°14' E 135°05'0 0.0
2014-Jul-29 21:31N 34°14' E 135°05'0 0.0
2014-Jul-29 20:31N 34°14' E 135°05'0 0.0
2014-Jul-29 19:31N 34°14' E 135°05'0 0.1
2014-Jul-29 18:31N 34°14' E 135°05'0 0.0
2014-Jul-29 17:31N 34°14' E 135°05'0 0.1
2014-Jul-29 16:31N 34°14' E 135°05'0 0.1
2014-Jul-29 15:28N 34°14' E 135°05'0 0.0
2014-Jul-29 14:31N 34°14' E 135°05'0 0.0
2014-Jul-29 13:31N 34°14' E 135°05'0 0.0
2014-Jul-29 12:31N 34°14' E 135°05'4 3.9
2014-Jul-29 11:33N 34°10' E 135°03'1414.3
2014-Jul-29 10:33N 33°57' E 134°57'  
2014-Jul-26 08:33N 22°47' E 120°07'10 8.5
2014-Jul-26 07:22N 22°39' E 120°14'0 0.0
2014-Jul-26 06:28N 22°39' E 120°14'0 0.1
2014-Jul-26 05:28N 22°39' E 120°13'0 0.0
2014-Jul-26 04:28N 22°39' E 120°13'0 0.0
2014-Jul-26 03:28N 22°39' E 120°13'0 0.0
2014-Jul-26 02:28N 22°39' E 120°13'0 0.0
2014-Jul-26 01:28N 22°39' E 120°13'0 0.0
2014-Jul-26 00:28N 22°39' E 120°13'0 0.1
2014-Jul-25 23:28N 22°39' E 120°13'0 0.1
2014-Jul-25 22:28N 22°39' E 120°13'0 0.0
2014-Jul-25 21:28N 22°39' E 120°13'0 0.1
2014-Jul-25 20:22N 22°39' E 120°14'0 0.1
2014-Jul-25 19:28N 22°39' E 120°13'0 0.0
2014-Jul-25 18:28N 22°39' E 120°13'0 0.0
2014-Jul-25 17:28N 22°39' E 120°13'0 0.0
2014-Jul-25 16:28N 22°39' E 120°13'0 0.0
2014-Jul-25 15:16N 22°39' E 120°13'0 0.0
2014-Jul-25 14:22N 22°39' E 120°13'0 0.0
2014-Jul-25 11:10N 22°39' E 120°13'0 0.0
2014-Jul-25 10:28N 22°39' E 120°13'0 0.0
2014-Jul-25 09:28N 22°39' E 120°13'0 0.0
2014-Jul-25 08:28N 22°39' E 120°13'0 0.0
2014-Jul-25 07:28N 22°39' E 120°13'0 0.1
2014-Jul-25 06:28N 22°39' E 120°14'0 0.1
2014-Jul-25 05:28N 22°39' E 120°13'0 0.0
2014-Jul-25 04:22N 22°39' E 120°13'0 0.1
2014-Jul-25 03:28N 22°39' E 120°14'0 0.0
2014-Jul-25 02:28N 22°39' E 120°14'0 0.0
2014-Jul-25 01:28N 22°39' E 120°14'0 0.0
2014-Jul-25 00:28N 22°39' E 120°14'0 0.0
2014-Jul-24 22:22N 22°39' E 120°14'0 0.0
2014-Jul-24 18:31N 22°39' E 120°14'0 0.0
2014-Jul-24 17:25N 22°39' E 120°14'0 0.0
2014-Jul-24 16:31N 22°39' E 120°14'0 0.0
2014-Jul-24 15:31N 22°39' E 120°14'0 0.0
2014-Jul-24 14:31N 22°39' E 120°14'0 0.0
2014-Jul-24 13:25N 22°39' E 120°14'0 0.0
2014-Jul-24 12:31N 22°39' E 120°14'0 0.0
2014-Jul-24 11:31N 22°39' E 120°14'0 0.1
2014-Jul-24 10:31N 22°39' E 120°13'0 0.0
2014-Jul-24 09:31N 22°39' E 120°13'0 0.1
2014-Jul-24 08:31N 22°39' E 120°14'0 0.0
2014-Jul-24 07:31N 22°39' E 120°14'0 0.1
2014-Jul-24 06:19N 22°39' E 120°14'0 0.1
2014-Jul-24 05:31N 22°39' E 120°14'0 0.0
2014-Jul-24 04:25N 22°39' E 120°14'0 0.0
2014-Jul-24 03:31N 22°39' E 120°14'0 0.1
2014-Jul-24 02:31N 22°39' E 120°14'0 0.1
2014-Jul-24 01:33N 22°39' E 120°13'5 4.8
2014-Jul-24 00:33N 22°36' E 120°18'0 0.0
2014-Jul-23 23:33N 22°36' E 120°18'0 0.0
2014-Jul-23 18:27N 22°36' E 120°18'0 0.0
2014-Jul-23 17:33N 22°36' E 120°18'0 0.0
2014-Jul-23 16:33N 22°36' E 120°18'0 0.0
2014-Jul-23 15:33N 22°36' E 120°18'0 0.0
2014-Jul-23 14:33N 22°36' E 120°18'0 0.0
2014-Jul-23 13:33N 22°36' E 120°18'0 0.0
2014-Jul-23 12:33N 22°36' E 120°18'0 0.0
2014-Jul-23 11:33N 22°36' E 120°18'0 0.0
2014-Jul-23 10:27N 22°36' E 120°18'0 0.0
2014-Jul-23 09:33N 22°36' E 120°18'0 0.0
2014-Jul-23 08:33N 22°36' E 120°18'0 0.0
2014-Jul-23 07:33N 22°36' E 120°18'0 0.0
2014-Jul-23 06:33N 22°36' E 120°18'0 0.0
2014-Jul-23 05:18N 22°36' E 120°18'0 0.0
2014-Jul-23 04:30N 22°36' E 120°18'0 0.0
2014-Jul-23 03:21N 22°36' E 120°18'0 0.0
2014-Jul-23 02:06N 22°36' E 120°18'0 0.0
2014-Jul-23 01:12N 22°36' E 120°18'0 0.0
2014-Jul-23 00:30N 22°36' E 120°18'0 0.0
2014-Jul-22 20:33N 22°36' E 120°18'0 0.0
2014-Jul-22 18:15N 22°36' E 120°18'0 0.0
2014-Jul-22 17:33N 22°36' E 120°18'0 0.0
2014-Jul-22 16:33N 22°36' E 120°18'0 0.0
2014-Jul-22 15:33N 22°36' E 120°18'0 0.0
2014-Jul-22 14:21N 22°36' E 120°18'0 0.0
2014-Jul-22 13:33N 22°36' E 120°18'0 0.0
2014-Jul-22 12:33N 22°36' E 120°18'0 0.0
2014-Jul-22 11:33N 22°36' E 120°18'0 0.0
2014-Jul-22 10:33N 22°36' E 120°18'0 0.0
2014-Jul-22 09:33N 22°36' E 120°18'0 0.0
2014-Jul-22 08:15N 22°36' E 120°18'0 0.0
2014-Jul-22 07:33N 22°36' E 120°18'  
Track history (hours):
 
Tides and Currents Weather Stations Pressure Air Temp Water Temp Dewpoint Dewpoint Depression Visibility Wind Speed Wind Dir Waves Ship Positions

Cse Prosperity Expr.

Last reported at 2014-Aug-01 07:32 UTC. Time now 2014-Aug-01 07:49 UTC.
Position N 34°14' E 135°07'.

Length 168 m; draft 5.6 m.

Type: Cargo ship. MMSI: 371801000.

Date/timePositionNaut miles runAvg speedWind from/ knotsBaromVisibWave heightAir tempDewpointWater temp
2014-Aug-01 07:32N 34°14' E 135°07'0 0.0
2014-Aug-01 06:32N 34°14' E 135°07'0 0.0
2014-Aug-01 05:32N 34°14' E 135°07'0 0.0
2014-Aug-01 04:32N 34°14' E 135°07'0 0.0
2014-Aug-01 03:32N 34°14' E 135°07'0 0.0
2014-Aug-01 02:32N 34°14' E 135°07'0 0.0
2014-Aug-01 01:32N 34°14' E 135°07'0 0.0
2014-Aug-01 00:32N 34°14' E 135°07'1 1.0
2014-Jul-31 23:33N 34°14' E 135°06'1 1.0
2014-Jul-31 22:31N 34°14' E 135°05'0 0.0
2014-Jul-31 21:31N 34°14' E 135°05'0 0.0
2014-Jul-31 20:31N 34°14' E 135°05'0 0.0
2014-Jul-31 19:31N 34°14' E 135°05'0 0.0
2014-Jul-31 18:28N 34°14' E 135°05'0 0.1
2014-Jul-31 17:31N 34°14' E 135°05'0 0.0
2014-Jul-31 16:28N 34°14' E 135°05'0 0.0
2014-Jul-31 15:31N 34°14' E 135°05'0 0.0
2014-Jul-31 14:31N 34°14' E 135°05'0 0.0
2014-Jul-31 13:31N 34°14' E 135°05'0 0.0
2014-Jul-31 12:31N 34°14' E 135°05'0 0.0
2014-Jul-31 11:31N 34°14' E 135°05'0 0.0
2014-Jul-31 10:31N 34°14' E 135°05'0 0.0
2014-Jul-31 09:31N 34°14' E 135°05'0 0.0
2014-Jul-31 08:31N 34°14' E 135°05'0 0.0
2014-Jul-31 07:31N 34°14' E 135°05'0 0.0
2014-Jul-31 06:31N 34°14' E 135°05'0 0.0
2014-Jul-31 05:31N 34°14' E 135°05'0 0.0
2014-Jul-31 04:31N 34°14' E 135°05'0 0.0
2014-Jul-31 03:31N 34°14' E 135°05'0 0.0
2014-Jul-31 02:31N 34°14' E 135°05'0 0.1
2014-Jul-31 01:31N 34°14' E 135°05'0 0.0
2014-Jul-31 00:31N 34°14' E 135°05'0 0.0
2014-Jul-30 23:28N 34°14' E 135°05'0 0.0
2014-Jul-30 22:31N 34°14' E 135°05'0 0.0
2014-Jul-30 21:31N 34°14' E 135°05'0 0.0
2014-Jul-30 20:28N 34°14' E 135°05'0 0.0
2014-Jul-30 19:31N 34°14' E 135°05'0 0.0
2014-Jul-30 18:31N 34°14' E 135°05'0 0.0
2014-Jul-30 17:31N 34°14' E 135°05'0 0.1
2014-Jul-30 16:31N 34°14' E 135°05'0 0.0
2014-Jul-30 15:31N 34°14' E 135°05'0 0.0
2014-Jul-30 14:31N 34°14' E 135°05'0 0.0
2014-Jul-30 13:31N 34°14' E 135°05'0 0.0
2014-Jul-30 12:31N 34°14' E 135°05'0 0.0
2014-Jul-30 11:31N 34°14' E 135°05'0 0.0
2014-Jul-30 10:31N 34°14' E 135°05'0 0.0
2014-Jul-30 09:31N 34°14' E 135°05'0 0.0
2014-Jul-30 08:31N 34°14' E 135°05'0 0.0
2014-Jul-30 07:31N 34°14' E 135°05'0 0.1
2014-Jul-30 06:31N 34°14' E 135°05'0 0.0
2014-Jul-30 05:31N 34°14' E 135°05'0 0.1
2014-Jul-30 04:31N 34°14' E 135°05'0 0.1
2014-Jul-30 03:31N 34°14' E 135°05'0 0.1
2014-Jul-30 02:31N 34°14' E 135°05'0 0.0
2014-Jul-30 01:31N 34°14' E 135°05'0 0.0
2014-Jul-30 00:31N 34°14' E 135°05'0 0.0
2014-Jul-29 23:31N 34°14' E 135°05'0 0.0
2014-Jul-29 22:28N 34°14' E 135°05'0 0.0
2014-Jul-29 21:31N 34°14' E 135°05'0 0.0
2014-Jul-29 20:31N 34°14' E 135°05'0 0.0
2014-Jul-29 19:31N 34°14' E 135°05'0 0.1
2014-Jul-29 18:31N 34°14' E 135°05'0 0.0
2014-Jul-29 17:31N 34°14' E 135°05'0 0.1
2014-Jul-29 16:31N 34°14' E 135°05'0 0.1
2014-Jul-29 15:28N 34°14' E 135°05'0 0.0
2014-Jul-29 14:31N 34°14' E 135°05'0 0.0
2014-Jul-29 13:31N 34°14' E 135°05'0 0.0
2014-Jul-29 12:31N 34°14' E 135°05'4 3.9
2014-Jul-29 11:33N 34°10' E 135°03'1414.3
2014-Jul-29 10:33N 33°57' E 134°57'  
2014-Jul-26 08:33N 22°47' E 120°07'10 8.5
2014-Jul-26 07:22N 22°39' E 120°14'0 0.0
2014-Jul-26 06:28N 22°39' E 120°14'0 0.1
2014-Jul-26 05:28N 22°39' E 120°13'0 0.0
2014-Jul-26 04:28N 22°39' E 120°13'0 0.0
2014-Jul-26 03:28N 22°39' E 120°13'0 0.0
2014-Jul-26 02:28N 22°39' E 120°13'0 0.0
2014-Jul-26 01:28N 22°39' E 120°13'0 0.0
2014-Jul-26 00:28N 22°39' E 120°13'0 0.1
2014-Jul-25 23:28N 22°39' E 120°13'0 0.1
2014-Jul-25 22:28N 22°39' E 120°13'0 0.0
2014-Jul-25 21:28N 22°39' E 120°13'0 0.1
2014-Jul-25 20:22N 22°39' E 120°14'0 0.1
2014-Jul-25 19:28N 22°39' E 120°13'0 0.0
2014-Jul-25 18:28N 22°39' E 120°13'0 0.0
2014-Jul-25 17:28N 22°39' E 120°13'0 0.0
2014-Jul-25 16:28N 22°39' E 120°13'0 0.0
2014-Jul-25 15:16N 22°39' E 120°13'0 0.0
2014-Jul-25 14:22N 22°39' E 120°13'0 0.0
2014-Jul-25 11:10N 22°39' E 120°13'0 0.0
2014-Jul-25 10:28N 22°39' E 120°13'0 0.0
2014-Jul-25 09:28N 22°39' E 120°13'0 0.0
2014-Jul-25 08:28N 22°39' E 120°13'0 0.0
2014-Jul-25 07:28N 22°39' E 120°13'0 0.1
2014-Jul-25 06:28N 22°39' E 120°14'0 0.1
2014-Jul-25 05:28N 22°39' E 120°13'0 0.0
2014-Jul-25 04:22N 22°39' E 120°13'0 0.1
2014-Jul-25 03:28N 22°39' E 120°14'0 0.0
2014-Jul-25 02:28N 22°39' E 120°14'0 0.0
2014-Jul-25 01:28N 22°39' E 120°14'0 0.0
2014-Jul-25 00:28N 22°39' E 120°14'0 0.0
2014-Jul-24 22:22N 22°39' E 120°14'0 0.0
2014-Jul-24 18:31N 22°39' E 120°14'0 0.0
2014-Jul-24 17:25N 22°39' E 120°14'0 0.0
2014-Jul-24 16:31N 22°39' E 120°14'0 0.0
2014-Jul-24 15:31N 22°39' E 120°14'0 0.0
2014-Jul-24 14:31N 22°39' E 120°14'0 0.0
2014-Jul-24 13:25N 22°39' E 120°14'0 0.0
2014-Jul-24 12:31N 22°39' E 120°14'0 0.0
2014-Jul-24 11:31N 22°39' E 120°14'0 0.1
2014-Jul-24 10:31N 22°39' E 120°13'0 0.0
2014-Jul-24 09:31N 22°39' E 120°13'0 0.1
2014-Jul-24 08:31N 22°39' E 120°14'0 0.0
2014-Jul-24 07:31N 22°39' E 120°14'0 0.1
2014-Jul-24 06:19N 22°39' E 120°14'0 0.1
2014-Jul-24 05:31N 22°39' E 120°14'0 0.0
2014-Jul-24 04:25N 22°39' E 120°14'0 0.0
2014-Jul-24 03:31N 22°39' E 120°14'0 0.1
2014-Jul-24 02:31N 22°39' E 120°14'0 0.1
2014-Jul-24 01:33N 22°39' E 120°13'5 4.8
2014-Jul-24 00:33N 22°36' E 120°18'0 0.0
2014-Jul-23 23:33N 22°36' E 120°18'0 0.0
2014-Jul-23 18:27N 22°36' E 120°18'0 0.0
2014-Jul-23 17:33N 22°36' E 120°18'0 0.0
2014-Jul-23 16:33N 22°36' E 120°18'0 0.0
2014-Jul-23 15:33N 22°36' E 120°18'0 0.0
2014-Jul-23 14:33N 22°36' E 120°18'0 0.0
2014-Jul-23 13:33N 22°36' E 120°18'0 0.0
2014-Jul-23 12:33N 22°36' E 120°18'0 0.0
2014-Jul-23 11:33N 22°36' E 120°18'0 0.0
2014-Jul-23 10:27N 22°36' E 120°18'0 0.0
2014-Jul-23 09:33N 22°36' E 120°18'0 0.0
2014-Jul-23 08:33N 22°36' E 120°18'0 0.0
2014-Jul-23 07:33N 22°36' E 120°18'0 0.0
2014-Jul-23 06:33N 22°36' E 120°18'0 0.0
2014-Jul-23 05:18N 22°36' E 120°18'0 0.0
2014-Jul-23 04:30N 22°36' E 120°18'0 0.0
2014-Jul-23 03:21N 22°36' E 120°18'0 0.0
2014-Jul-23 02:06N 22°36' E 120°18'0 0.0
2014-Jul-23 01:12N 22°36' E 120°18'0 0.0
2014-Jul-23 00:30N 22°36' E 120°18'0 0.0
2014-Jul-22 20:33N 22°36' E 120°18'0 0.0
2014-Jul-22 18:15N 22°36' E 120°18'0 0.0
2014-Jul-22 17:33N 22°36' E 120°18'0 0.0
2014-Jul-22 16:33N 22°36' E 120°18'0 0.0
2014-Jul-22 15:33N 22°36' E 120°18'0 0.0
2014-Jul-22 14:21N 22°36' E 120°18'0 0.0
2014-Jul-22 13:33N 22°36' E 120°18'0 0.0
2014-Jul-22 12:33N 22°36' E 120°18'0 0.0
2014-Jul-22 11:33N 22°36' E 120°18'0 0.0
2014-Jul-22 10:33N 22°36' E 120°18'0 0.0
2014-Jul-22 09:33N 22°36' E 120°18'0 0.0
2014-Jul-22 08:15N 22°36' E 120°18'0 0.0
2014-Jul-22 07:33N 22°36' E 120°18'  

Dump ship's entire track history